createdAt,value
2023-05-10T00:00:46.112Z,47.33
2023-05-10T00:01:48.425Z,47.27
2023-05-10T00:02:50.958Z,47.10
2023-05-10T00:03:53.510Z,46.99
2023-05-10T00:04:55.776Z,47.19
2023-05-10T00:05:58.513Z,47.10
2023-05-10T00:07:00.739Z,47.03
2023-05-10T00:08:02.952Z,47.14
2023-05-10T00:09:05.163Z,47.03
2023-05-10T00:10:08.432Z,47.27
2023-05-10T00:11:10.621Z,47.18
2023-05-10T00:12:12.897Z,47.32
2023-05-10T00:13:15.145Z,46.99
2023-05-10T00:14:17.630Z,47.15
2023-05-10T00:15:20.645Z,47.43
2023-05-10T00:16:23.168Z,47.19
2023-05-10T00:17:25.575Z,47.27
2023-05-10T00:18:28.836Z,47.18
2023-05-10T00:19:31.158Z,47.35
2023-05-10T00:20:33.408Z,47.42
2023-05-10T00:21:36.093Z,47.29
2023-05-10T00:22:38.397Z,47.47
2023-05-10T00:23:41.270Z,47.45
2023-05-10T00:24:44.047Z,47.32
2023-05-10T00:25:47.477Z,47.35
2023-05-10T00:26:49.730Z,47.18
2023-05-10T00:27:51.949Z,47.18
2023-05-10T00:28:54.116Z,47.49
2023-05-10T00:29:56.425Z,47.97
2023-05-10T00:30:58.894Z,47.70
2023-05-10T00:32:01.200Z,47.72
2023-05-10T00:33:03.628Z,47.18
2023-05-10T00:34:05.984Z,47.06
2023-05-10T00:35:08.807Z,47.24
2023-05-10T00:36:11.934Z,47.32
2023-05-10T00:37:14.736Z,47.63
2023-05-10T00:38:16.971Z,47.48
2023-05-10T00:39:19.309Z,47.59
2023-05-10T00:40:21.496Z,47.53
2023-05-10T00:41:26.098Z,47.58
2023-05-10T00:42:28.285Z,47.57
2023-05-10T00:43:30.814Z,47.54
2023-05-10T00:44:33.581Z,47.31
2023-05-10T00:45:37.793Z,47.43
2023-05-10T00:46:40.196Z,47.21
2023-05-10T00:47:42.736Z,47.07
2023-05-10T00:48:45.461Z,47.23
2023-05-10T00:49:47.868Z,47.41
2023-05-10T00:50:50.173Z,47.19
2023-05-10T00:51:53.098Z,47.05
2023-05-10T00:52:56.385Z,46.88
2023-05-10T00:53:59.390Z,47.26
2023-05-10T00:55:02.416Z,47.55
2023-05-10T00:56:04.997Z,47.47
2023-05-10T00:57:07.242Z,47.43
2023-05-10T00:58:09.523Z,47.11
2023-05-10T00:59:11.923Z,46.78
2023-05-10T01:00:15.027Z,46.87
2023-05-10T01:01:18.691Z,46.81
2023-05-10T01:02:21.240Z,46.67
2023-05-10T01:03:23.820Z,46.49
2023-05-10T01:04:26.231Z,46.83
2023-05-10T01:05:28.560Z,46.69
2023-05-10T01:06:31.566Z,46.59
2023-05-10T01:07:33.750Z,46.60
2023-05-10T01:08:36.877Z,46.80
2023-05-10T01:09:39.388Z,46.89
2023-05-10T01:10:43.484Z,46.86
2023-05-10T01:11:46.443Z,46.95
2023-05-10T01:12:49.225Z,46.74
2023-05-10T01:13:55.147Z,46.77
2023-05-10T01:14:58.211Z,46.68
2023-05-10T01:16:01.151Z,46.87
2023-05-10T01:17:05.411Z,46.75
2023-05-10T01:18:09.557Z,46.80
2023-05-10T01:19:21.825Z,46.79
2023-05-10T01:20:25.686Z,46.88
2023-05-10T01:21:35.049Z,46.85
2023-05-10T01:22:56.079Z,46.93
2023-05-10T01:24:18.949Z,47.09
2023-05-10T01:25:30.854Z,47.08
2023-05-10T01:27:11.850Z,47.24
2023-05-10T01:28:47.206Z,47.54
2023-05-10T01:31:53.792Z,47.23
2023-05-10T01:33:20.099Z,47.17
2023-05-10T01:34:25.989Z,47.14
2023-05-10T01:35:34.847Z,47.22
2023-05-10T01:38:31.653Z,47.17
2023-05-10T01:39:52.629Z,47.11
2023-05-10T01:42:33.366Z,46.92
2023-05-10T01:43:45.284Z,47.33
2023-05-10T01:45:17.736Z,47.48
2023-05-10T01:47:44.795Z,47.40
2023-05-10T01:48:51.508Z,47.66
2023-05-10T01:49:55.886Z,47.75
2023-05-10T01:50:59.263Z,47.78
2023-05-10T01:52:14.378Z,47.65
2023-05-10T01:53:20.207Z,47.80
2023-05-10T01:54:24.504Z,47.62
2023-05-10T01:55:32.847Z,47.59
2023-05-10T01:56:38.210Z,47.57
2023-05-10T01:57:44.167Z,47.71
2023-05-10T01:58:49.788Z,47.45
2023-05-10T01:59:53.601Z,47.76
2023-05-10T02:00:57.994Z,47.45
2023-05-10T02:02:02.733Z,47.49
2023-05-10T02:03:08.837Z,47.51
2023-05-10T02:04:16.390Z,47.75
2023-05-10T02:05:20.698Z,47.56
2023-05-10T02:06:24.477Z,47.39
2023-05-10T02:07:29.405Z,47.78
2023-05-10T02:08:33.518Z,47.76
2023-05-10T02:09:38.590Z,47.76
2023-05-10T02:10:43.078Z,47.62
2023-05-10T02:11:47.688Z,47.68
2023-05-10T02:12:53.168Z,47.71
2023-05-10T02:13:56.741Z,47.69
2023-05-10T02:15:04.594Z,47.82
2023-05-10T02:16:08.015Z,47.65
2023-05-10T02:17:12.042Z,47.56
2023-05-10T02:18:16.641Z,47.51
2023-05-10T02:19:20.411Z,47.71
2023-05-10T02:20:25.201Z,47.92
2023-05-10T02:21:29.937Z,47.82
2023-05-10T02:22:33.374Z,47.69
2023-05-10T02:23:38.151Z,47.93
2023-05-10T02:24:41.997Z,48.11
2023-05-10T02:25:45.307Z,48.02
2023-05-10T02:26:50.171Z,47.90
2023-05-10T02:27:55.140Z,47.93
2023-05-10T02:28:58.569Z,48.02
2023-05-10T02:30:02.116Z,48.26
2023-05-10T02:31:06.461Z,48.09
2023-05-10T02:32:10.452Z,48.06
2023-05-10T02:33:15.257Z,47.99
2023-05-10T02:34:18.061Z,48.09
2023-05-10T02:35:23.052Z,48.23
2023-05-10T02:36:26.750Z,48.04
2023-05-10T02:37:30.169Z,47.94
2023-05-10T02:38:35.141Z,48.00
2023-05-10T02:39:38.692Z,48.15
2023-05-10T02:40:43.027Z,48.33
2023-05-10T02:41:49.119Z,48.24
2023-05-10T02:42:55.027Z,48.32
2023-05-10T02:44:01.128Z,48.10
2023-05-10T02:46:16.455Z,48.55
2023-05-10T02:47:19.487Z,48.72
2023-05-10T02:48:21.877Z,48.50
2023-05-10T02:49:24.320Z,48.46
2023-05-10T02:50:32.619Z,48.46
2023-05-10T02:51:38.304Z,48.50
2023-05-10T02:52:46.907Z,48.47
2023-05-10T02:53:52.030Z,48.26
2023-05-10T02:54:58.549Z,48.13
2023-05-10T02:56:04.319Z,48.46
2023-05-10T02:57:09.745Z,48.70
2023-05-10T02:58:13.509Z,48.56
2023-05-10T02:59:15.903Z,48.35
2023-05-10T03:00:18.534Z,48.28
2023-05-10T03:01:21.844Z,48.36
2023-05-10T03:02:25.486Z,47.91
2023-05-10T03:03:27.994Z,47.90
2023-05-10T03:04:30.761Z,48.12
2023-05-10T03:05:33.672Z,48.34
2023-05-10T03:06:38.017Z,48.39
2023-05-10T03:07:41.057Z,48.31
2023-05-10T03:08:44.888Z,48.69
2023-05-10T03:09:49.656Z,48.36
2023-05-10T03:11:07.175Z,48.37
2023-05-10T03:12:16.521Z,48.24
2023-05-10T03:13:34.327Z,47.99
2023-05-10T03:14:59.771Z,48.05
2023-05-10T03:16:25.148Z,48.15
2023-05-10T03:17:49.704Z,48.10
2023-05-10T03:19:01.699Z,48.76
2023-05-10T03:20:07.350Z,48.35
2023-05-10T03:21:13.290Z,48.75
2023-05-10T03:22:20.398Z,48.65
2023-05-10T03:23:32.607Z,48.51
2023-05-10T03:24:37.165Z,48.43
2023-05-10T03:25:41.568Z,48.64
2023-05-10T03:26:45.648Z,48.63
2023-05-10T03:27:51.678Z,48.55
2023-05-10T03:28:55.751Z,48.65
2023-05-10T03:29:58.553Z,48.55
2023-05-10T03:31:02.830Z,48.61
2023-05-10T03:32:05.956Z,48.43
2023-05-10T03:33:08.906Z,48.64
2023-05-10T03:34:13.549Z,48.70
2023-05-10T03:35:15.887Z,48.69
2023-05-10T03:36:19.780Z,48.86
2023-05-10T03:37:22.328Z,48.92
2023-05-10T03:38:24.732Z,48.96
2023-05-10T03:39:27.055Z,49.02
2023-05-10T03:40:31.207Z,49.06
2023-05-10T03:41:34.048Z,48.88
2023-05-10T03:42:36.440Z,48.85
2023-05-10T03:43:39.234Z,48.90
2023-05-10T03:44:41.406Z,48.76
2023-05-10T03:45:44.772Z,49.13
2023-05-10T03:46:46.944Z,49.22
2023-05-10T03:47:49.789Z,49.32
2023-05-10T03:48:52.122Z,49.23
2023-05-10T03:49:54.449Z,49.60
2023-05-10T03:50:56.834Z,49.71
2023-05-10T03:51:59.352Z,49.00
2023-05-10T03:53:02.503Z,49.41
2023-05-10T03:54:04.866Z,49.28
2023-05-10T03:55:08.135Z,49.14
2023-05-10T03:56:11.403Z,49.39
2023-05-10T03:57:13.851Z,49.58
2023-05-10T03:58:16.193Z,49.43
2023-05-10T03:59:18.940Z,49.00
2023-05-10T04:00:21.174Z,48.95
2023-05-10T04:01:25.927Z,48.92
2023-05-10T04:02:28.310Z,48.88
2023-05-10T04:03:31.357Z,49.11
2023-05-10T04:04:33.718Z,48.97
2023-05-10T04:05:37.556Z,48.77
2023-05-10T04:06:39.955Z,48.65
2023-05-10T04:07:42.091Z,49.31
2023-05-10T04:08:44.422Z,49.06
2023-05-10T04:09:47.395Z,49.35
2023-05-10T04:10:49.767Z,49.08
2023-05-10T04:11:52.004Z,48.78
2023-05-10T04:12:54.419Z,48.74
2023-05-10T04:13:56.880Z,48.98
2023-05-10T04:14:59.083Z,48.93
2023-05-10T04:16:01.712Z,48.85
2023-05-10T04:17:03.843Z,48.87
2023-05-10T04:18:07.971Z,48.99
2023-05-10T04:19:10.130Z,48.90
2023-05-10T04:20:13.398Z,48.96
2023-05-10T04:21:16.189Z,48.69
2023-05-10T04:22:19.773Z,48.41
2023-05-10T04:23:23.081Z,48.58
2023-05-10T04:24:26.184Z,48.92
2023-05-10T04:25:28.895Z,48.86
2023-05-10T04:26:31.197Z,49.05
2023-05-10T04:27:33.537Z,49.23
2023-05-10T04:28:35.822Z,49.44
2023-05-10T04:29:38.169Z,49.46
2023-05-10T04:30:40.525Z,49.44
2023-05-10T04:31:42.734Z,48.94
2023-05-10T04:32:45.060Z,49.41
2023-05-10T04:33:48.484Z,49.30
2023-05-10T04:34:50.791Z,48.99
2023-05-10T04:35:52.912Z,49.27
2023-05-10T04:36:55.558Z,49.04
2023-05-10T04:37:57.769Z,48.83
2023-05-10T04:39:00.377Z,48.60
2023-05-10T04:40:03.514Z,48.35
2023-05-10T04:41:07.804Z,48.43
2023-05-10T04:42:10.096Z,48.57
2023-05-10T04:43:12.934Z,48.53
2023-05-10T04:44:15.243Z,48.45
2023-05-10T04:45:17.518Z,48.50
2023-05-10T04:46:19.830Z,48.26
2023-05-10T04:47:22.248Z,48.22
2023-05-10T04:48:24.423Z,48.48
2023-05-10T04:49:26.771Z,48.46
2023-05-10T04:50:29.331Z,48.49
2023-05-10T04:51:31.599Z,49.02
2023-05-10T04:52:33.833Z,49.00
2023-05-10T04:53:36.037Z,48.56
2023-05-10T04:54:38.129Z,48.90
2023-05-10T04:55:40.160Z,49.08
2023-05-10T04:56:42.345Z,48.91
2023-05-10T04:57:44.670Z,49.17
2023-05-10T04:58:47.066Z,49.37
2023-05-10T04:59:50.684Z,48.92
2023-05-10T05:00:53.695Z,49.17
2023-05-10T05:01:56.868Z,48.86
2023-05-10T05:02:59.253Z,48.97
2023-05-10T05:04:01.816Z,48.97
2023-05-10T05:05:04.411Z,48.91
2023-05-10T05:06:07.467Z,48.76
2023-05-10T05:07:09.569Z,48.92
2023-05-10T05:08:12.254Z,49.01
2023-05-10T05:09:15.011Z,48.67
2023-05-10T05:10:17.532Z,49.13
2023-05-10T05:11:20.089Z,49.13
2023-05-10T05:12:22.428Z,49.46
2023-05-10T05:13:25.900Z,49.04
2023-05-10T05:14:28.688Z,49.11
2023-05-10T05:15:31.548Z,49.44
2023-05-10T05:16:34.010Z,49.35
2023-05-10T05:17:36.982Z,49.12
2023-05-10T05:18:39.579Z,48.58
2023-05-10T05:19:42.362Z,48.50
2023-05-10T05:20:44.606Z,48.45
2023-05-10T05:21:47.120Z,48.38
2023-05-10T05:22:49.604Z,48.21
2023-05-10T05:23:51.869Z,48.23
2023-05-10T05:24:58.218Z,48.33
2023-05-10T05:26:00.787Z,48.70
2023-05-10T05:27:03.711Z,48.54
2023-05-10T05:28:05.902Z,48.65
2023-05-10T05:29:08.592Z,48.25
2023-05-10T05:30:11.636Z,48.11
2023-05-10T05:31:15.863Z,48.77
2023-05-10T05:32:18.040Z,48.83
2023-05-10T05:33:20.232Z,49.31
2023-05-10T05:34:22.460Z,49.43
2023-05-10T05:35:25.080Z,49.53
2023-05-10T05:36:27.784Z,49.04
2023-05-10T05:37:29.963Z,48.70
2023-05-10T05:38:32.685Z,48.70
2023-05-10T05:39:37.003Z,49.08
2023-05-10T05:40:39.397Z,48.86
2023-05-10T05:41:41.565Z,48.93
2023-05-10T05:42:43.911Z,49.09
2023-05-10T05:43:45.860Z,49.21
2023-05-10T05:44:48.056Z,49.35
2023-05-10T05:45:50.272Z,49.19
2023-05-10T05:46:52.543Z,48.67
2023-05-10T05:47:55.266Z,48.39
2023-05-10T05:49:00.712Z,48.28
2023-05-10T05:50:07.793Z,48.15
2023-05-10T05:51:10.586Z,48.00
2023-05-10T05:52:17.038Z,48.06
2023-05-10T05:53:25.303Z,48.19
2023-05-10T05:54:30.509Z,48.01
2023-05-10T05:55:38.591Z,47.98
2023-05-10T05:56:44.399Z,48.07
2023-05-10T05:57:50.726Z,48.17
2023-05-10T05:58:54.959Z,48.13
2023-05-10T05:59:59.653Z,48.36
2023-05-10T06:01:04.439Z,48.80
2023-05-10T06:02:07.765Z,48.76
2023-05-10T06:03:13.186Z,49.12
2023-05-10T06:04:17.918Z,48.96
2023-05-10T06:05:23.750Z,47.84
2023-05-10T06:06:31.352Z,48.60
2023-05-10T06:07:37.245Z,48.44
2023-05-10T06:08:44.358Z,48.71
2023-05-10T06:09:47.998Z,48.34
2023-05-10T06:10:52.336Z,48.56
2023-05-10T06:11:55.081Z,48.41
2023-05-10T06:12:59.904Z,48.71
2023-05-10T06:14:04.693Z,48.56
2023-05-10T06:15:09.288Z,48.97
2023-05-10T06:16:19.406Z,49.02
2023-05-10T06:17:25.924Z,48.52
2023-05-10T06:19:57.817Z,49.13
2023-05-10T06:21:07.917Z,49.41
2023-05-10T06:22:14.673Z,48.76
2023-05-10T06:23:20.902Z,48.99
2023-05-10T06:24:29.501Z,48.98
2023-05-10T06:25:35.083Z,48.98
2023-05-10T06:26:38.488Z,48.71
2023-05-10T06:27:41.217Z,48.30
2023-05-10T06:28:44.026Z,48.34
2023-05-10T06:29:46.779Z,48.41
2023-05-10T06:30:51.533Z,48.58
2023-05-10T06:31:58.207Z,48.70
2023-05-10T06:33:03.366Z,48.83
2023-05-10T06:34:17.500Z,48.78
2023-05-10T06:35:25.216Z,48.91
2023-05-10T06:36:30.852Z,48.37
2023-05-10T06:37:34.506Z,48.20
2023-05-10T06:38:37.127Z,48.16
2023-05-10T06:39:44.429Z,48.42
2023-05-10T06:40:47.037Z,47.58
2023-05-10T06:41:56.303Z,47.54
2023-05-10T06:42:59.957Z,47.82
2023-05-10T06:44:03.587Z,48.50
2023-05-10T06:45:12.186Z,48.49
2023-05-10T06:46:14.652Z,48.13
2023-05-10T06:47:19.823Z,48.73
2023-05-10T06:48:24.552Z,47.76
2023-05-10T06:49:29.955Z,47.42
2023-05-10T06:50:35.773Z,47.04
2023-05-10T06:51:40.258Z,47.29
2023-05-10T06:52:47.007Z,47.39
2023-05-10T06:53:53.380Z,47.04
2023-05-10T06:54:57.440Z,46.53
2023-05-10T06:56:05.781Z,46.87
2023-05-10T06:57:23.352Z,46.80
2023-05-10T06:58:18.421Z,46.09
2023-05-10T06:59:25.177Z,47.71
2023-05-10T07:00:30.217Z,46.91
2023-05-10T07:01:38.398Z,46.27
2023-05-10T07:02:42.564Z,46.52
2023-05-10T07:03:49.072Z,47.25
2023-05-10T07:04:53.732Z,47.02
2023-05-10T07:06:06.307Z,47.27
2023-05-10T07:07:14.131Z,46.39
2023-05-10T07:08:17.602Z,46.69
2023-05-10T07:09:22.224Z,47.03
2023-05-10T07:10:26.705Z,47.97
2023-05-10T07:11:30.430Z,47.20
2023-05-10T07:12:33.749Z,47.23
2023-05-10T07:13:40.626Z,47.01
2023-05-10T07:14:45.422Z,46.86
2023-05-10T07:15:49.210Z,47.00
2023-05-10T07:16:58.279Z,46.19
2023-05-10T07:18:07.876Z,46.80
2023-05-10T07:19:12.666Z,46.82
2023-05-10T07:20:19.430Z,46.65
2023-05-10T07:21:25.937Z,46.27
2023-05-10T07:22:33.840Z,46.82
2023-05-10T07:23:36.249Z,46.89
2023-05-10T07:24:40.361Z,47.50
2023-05-10T07:27:00.155Z,45.68
2023-05-10T07:28:02.511Z,44.78
2023-05-10T07:29:04.679Z,45.78
2023-05-10T07:30:08.466Z,45.86
2023-05-10T07:31:10.702Z,46.53
2023-05-10T07:32:13.972Z,45.98
2023-05-10T07:33:16.761Z,46.92
2023-05-10T07:34:19.916Z,46.81
2023-05-10T07:35:22.232Z,46.36
2023-05-10T07:36:24.434Z,45.34
2023-05-10T07:37:26.977Z,45.49
2023-05-10T07:38:29.330Z,45.14
2023-05-10T07:39:32.496Z,45.42
2023-05-10T07:40:34.864Z,45.18
2023-05-10T07:41:36.820Z,45.54
2023-05-10T07:42:39.246Z,45.56
2023-05-10T07:43:41.533Z,45.75
2023-05-10T07:44:43.603Z,45.57
2023-05-10T07:45:46.366Z,45.09
2023-05-10T07:46:48.580Z,45.08
2023-05-10T07:47:51.900Z,44.57
2023-05-10T07:48:54.125Z,45.31
2023-05-10T07:49:56.388Z,46.33
2023-05-10T07:50:59.034Z,45.86
2023-05-10T07:52:01.544Z,45.07
2023-05-10T07:53:03.740Z,44.85
2023-05-10T07:54:06.236Z,44.69
2023-05-10T07:55:09.360Z,44.69
2023-05-10T07:56:29.000Z,44.40
2023-05-10T07:57:31.189Z,45.52
2023-05-10T07:58:33.314Z,44.76
2023-05-10T07:59:35.396Z,43.84
2023-05-10T08:00:37.924Z,43.90
2023-05-10T08:01:40.508Z,44.46
2023-05-10T08:02:43.240Z,43.34
2023-05-10T08:03:45.674Z,43.00
2023-05-10T08:04:48.624Z,43.19
2023-05-10T08:05:51.392Z,42.19
2023-05-10T08:06:53.589Z,41.48
2023-05-10T08:07:55.750Z,43.38
2023-05-10T08:08:58.033Z,44.02
2023-05-10T08:09:59.995Z,43.75
2023-05-10T08:11:02.768Z,43.73
2023-05-10T08:12:05.783Z,43.34
2023-05-10T08:13:08.149Z,41.44
2023-05-10T08:14:10.827Z,40.49
2023-05-10T08:15:13.462Z,40.13
2023-05-10T08:16:16.278Z,40.14
2023-05-10T08:17:19.935Z,40.33
2023-05-10T08:18:23.029Z,40.73
2023-05-10T08:19:25.798Z,41.20
2023-05-10T08:20:28.699Z,40.98
2023-05-10T08:21:31.498Z,40.66
2023-05-10T08:22:33.581Z,39.72
2023-05-10T08:23:35.656Z,41.63
2023-05-10T08:24:37.735Z,42.04
2023-05-10T08:25:40.040Z,40.03
2023-05-10T08:26:42.721Z,40.00
2023-05-10T08:27:45.512Z,38.43
2023-05-10T08:28:47.591Z,37.30
2023-05-10T08:29:50.755Z,37.20
2023-05-10T08:30:53.359Z,38.32
2023-05-10T08:31:55.687Z,37.57
2023-05-10T08:32:57.986Z,36.80
2023-05-10T08:34:00.393Z,36.86
2023-05-10T08:35:02.687Z,36.39
2023-05-10T08:36:05.097Z,36.45
2023-05-10T08:37:07.493Z,36.78
2023-05-10T08:38:09.590Z,38.65
2023-05-10T08:39:23.053Z,40.25
2023-05-10T08:40:16.064Z,38.73
2023-05-10T08:41:21.220Z,39.57
2023-05-10T08:42:26.859Z,37.93
2023-05-10T08:43:30.160Z,36.31
2023-05-10T08:44:36.272Z,35.68
2023-05-10T08:45:43.422Z,34.68
2023-05-10T08:46:47.313Z,35.45
2023-05-10T08:47:50.742Z,37.07
2023-05-10T08:48:54.411Z,37.54
2023-05-10T08:49:59.230Z,37.23
2023-05-10T08:51:04.088Z,37.64
2023-05-10T08:52:07.481Z,38.05
2023-05-10T08:53:15.445Z,37.74
2023-05-10T08:54:18.649Z,37.49
2023-05-10T08:55:20.945Z,37.87
2023-05-10T08:56:23.600Z,37.95
2023-05-10T08:57:26.513Z,36.86
2023-05-10T08:58:29.270Z,37.39
2023-05-10T08:59:31.954Z,36.35
2023-05-10T09:00:35.026Z,36.72
2023-05-10T09:01:37.960Z,36.55
2023-05-10T09:02:41.639Z,36.66
2023-05-10T09:03:46.607Z,36.74
2023-05-10T09:04:49.011Z,38.22
2023-05-10T09:05:51.265Z,37.58
2023-05-10T09:06:53.739Z,37.04
2023-05-10T09:07:56.370Z,37.33
2023-05-10T09:08:59.384Z,36.42
2023-05-10T09:10:01.956Z,36.91
2023-05-10T09:11:04.211Z,36.04
2023-05-10T09:12:09.713Z,36.08
2023-05-10T09:13:12.193Z,36.53
2023-05-10T09:14:16.219Z,36.27
2023-05-10T09:15:19.174Z,34.12
2023-05-10T09:16:22.533Z,34.29
2023-05-10T09:17:26.689Z,35.97
2023-05-10T09:18:33.193Z,37.46
2023-05-10T09:19:35.753Z,37.63
2023-05-10T09:20:38.474Z,36.54
2023-05-10T09:21:41.462Z,36.19
2023-05-10T09:22:44.300Z,35.22
2023-05-10T09:23:48.933Z,35.68
2023-05-10T09:26:22.208Z,36.03
2023-05-10T09:27:29.960Z,38.46
2023-05-10T09:28:34.116Z,37.96
2023-05-10T09:30:54.621Z,37.58
2023-05-10T09:31:57.581Z,36.69
2023-05-10T09:33:01.173Z,36.93
2023-05-10T09:34:03.597Z,36.39
2023-05-10T09:35:15.152Z,36.25
2023-05-10T09:36:17.857Z,36.71
2023-05-10T09:37:24.137Z,37.15
2023-05-10T09:38:26.276Z,37.50
2023-05-10T09:41:04.090Z,37.02
2023-05-10T09:43:17.444Z,36.22
2023-05-10T09:44:23.268Z,36.28
2023-05-10T09:45:30.515Z,35.89
2023-05-10T09:46:37.524Z,36.70
2023-05-10T09:47:40.102Z,36.76
2023-05-10T09:48:47.103Z,36.57
2023-05-10T09:49:53.870Z,36.99
2023-05-10T09:50:59.014Z,36.91
2023-05-10T09:52:07.366Z,37.27
2023-05-10T09:53:09.598Z,38.87
2023-05-10T09:54:15.121Z,37.95
2023-05-10T09:55:19.409Z,37.30
2023-05-10T09:56:34.632Z,37.63
2023-05-10T09:57:37.055Z,37.67
2023-05-10T09:58:40.657Z,37.04
2023-05-10T09:59:46.478Z,36.99
2023-05-10T10:00:49.488Z,36.75
2023-05-10T10:01:51.817Z,36.84
2023-05-10T10:02:58.688Z,36.50
2023-05-10T10:04:03.582Z,36.75
2023-05-10T10:05:07.535Z,36.99
2023-05-10T10:06:18.765Z,36.96
2023-05-10T10:07:15.117Z,36.51
2023-05-10T10:08:19.127Z,36.62
2023-05-10T10:09:21.384Z,36.73
2023-05-10T10:10:27.788Z,36.90
2023-05-10T10:11:30.199Z,37.42
2023-05-10T10:12:32.783Z,37.36
2023-05-10T10:13:35.166Z,37.58
2023-05-10T10:14:37.687Z,37.64
2023-05-10T10:15:40.834Z,37.37
2023-05-10T10:16:55.469Z,37.21
2023-05-10T10:17:49.287Z,37.37
2023-05-10T10:18:51.595Z,37.13
2023-05-10T10:19:55.966Z,37.49
2023-05-10T10:21:00.168Z,36.95
2023-05-10T10:22:02.575Z,36.07
2023-05-10T10:23:05.411Z,36.99
2023-05-10T10:24:07.607Z,37.22
2023-05-10T10:25:12.832Z,36.50
2023-05-10T10:26:17.495Z,36.52
2023-05-10T10:27:26.108Z,36.50
2023-05-10T10:31:26.268Z,35.70
2023-05-10T10:32:32.266Z,36.45
2023-05-10T10:33:53.708Z,35.54
2023-05-10T10:34:56.820Z,35.39
2023-05-10T10:36:01.975Z,36.30
2023-05-10T10:37:07.513Z,35.35
2023-05-10T10:38:09.869Z,34.13
2023-05-10T10:39:13.478Z,33.68
2023-05-10T10:40:33.702Z,34.24
2023-05-10T10:41:41.623Z,35.16
2023-05-10T10:42:47.942Z,35.55
2023-05-10T10:43:52.069Z,35.39
2023-05-10T10:44:57.875Z,36.27
2023-05-10T10:46:17.453Z,35.29
2023-05-10T10:47:22.848Z,35.64
2023-05-10T10:48:25.545Z,35.02
2023-05-10T10:49:27.871Z,34.37
2023-05-10T10:50:30.081Z,35.76
2023-05-10T10:51:32.300Z,35.63
2023-05-10T10:53:48.829Z,35.83
2023-05-10T10:55:00.536Z,35.77
2023-05-10T10:57:25.227Z,36.03
2023-05-10T10:58:32.248Z,35.63
2023-05-10T10:59:35.728Z,36.01
2023-05-10T11:00:39.406Z,35.03
2023-05-10T11:01:42.331Z,36.06
2023-05-10T11:02:45.571Z,35.34
2023-05-10T11:04:00.706Z,36.67
2023-05-10T11:05:26.522Z,35.82
2023-05-10T11:06:34.264Z,35.09
2023-05-10T11:07:36.608Z,35.41
2023-05-10T11:08:42.862Z,33.78
2023-05-10T11:09:48.437Z,32.97
2023-05-10T11:11:04.588Z,34.08
2023-05-10T11:12:09.849Z,33.30
2023-05-10T11:13:13.270Z,33.34
2023-05-10T11:14:20.070Z,33.89
2023-05-10T11:15:36.852Z,34.23
2023-05-10T11:16:44.151Z,34.93
2023-05-10T11:17:49.353Z,33.34
2023-05-10T11:19:04.229Z,31.95
2023-05-10T11:20:16.018Z,33.05
2023-05-10T11:21:24.038Z,32.56
2023-05-10T11:22:28.170Z,33.83
2023-05-10T11:24:01.854Z,33.73
2023-05-10T11:25:07.241Z,33.02
2023-05-10T11:26:12.458Z,32.04
2023-05-10T11:27:16.556Z,31.85
2023-05-10T11:28:19.536Z,32.31
2023-05-10T11:29:24.625Z,33.46
2023-05-10T11:30:29.425Z,33.33
2023-05-10T11:31:36.150Z,31.66
2023-05-10T11:32:41.190Z,31.64
2023-05-10T11:33:47.042Z,31.27
2023-05-10T11:34:49.538Z,32.23
2023-05-10T11:35:52.332Z,32.02
2023-05-10T11:36:56.492Z,31.64
2023-05-10T11:37:58.970Z,31.16
2023-05-10T11:39:01.492Z,31.94
2023-05-10T11:40:04.041Z,31.55
2023-05-10T11:41:08.133Z,31.92
2023-05-10T11:42:12.435Z,31.93
2023-05-10T11:43:14.767Z,32.44
2023-05-10T11:44:17.605Z,31.01
2023-05-10T11:45:20.112Z,31.58
2023-05-10T11:46:24.869Z,31.73
2023-05-10T11:47:27.164Z,31.57
2023-05-10T11:48:30.794Z,31.73
2023-05-10T11:49:33.207Z,32.14
2023-05-10T11:50:36.276Z,31.79
2023-05-10T11:51:39.272Z,32.15
2023-05-10T11:52:42.819Z,32.22
2023-05-10T11:53:45.189Z,31.83
2023-05-10T11:56:06.549Z,32.11
2023-05-10T11:57:09.366Z,32.30
2023-05-10T11:58:11.556Z,32.16
2023-05-10T11:59:15.197Z,32.33
2023-05-10T12:00:17.796Z,31.94
2023-05-10T12:01:21.932Z,31.87
2023-05-10T12:02:24.747Z,32.18
2023-05-10T12:03:29.021Z,32.52
2023-05-10T12:04:31.934Z,31.97
2023-05-10T12:05:34.912Z,32.09
2023-05-10T12:06:41.688Z,32.13
2023-05-10T12:07:44.147Z,32.12
2023-05-10T12:08:48.457Z,31.99
2023-05-10T12:10:09.113Z,32.94
2023-05-10T12:11:12.954Z,32.46
2023-05-10T12:12:18.060Z,32.29
2023-05-10T12:13:22.191Z,32.28
2023-05-10T12:14:24.518Z,31.74
2023-05-10T12:15:28.289Z,32.59
2023-05-10T12:16:30.763Z,32.58
2023-05-10T12:17:33.481Z,33.38
2023-05-10T12:18:39.667Z,33.04
2023-05-10T12:19:42.001Z,32.46
2023-05-10T12:20:44.503Z,32.59
2023-05-10T12:21:47.724Z,32.82
2023-05-10T12:24:08.638Z,32.51
2023-05-10T12:25:11.193Z,32.31
2023-05-10T12:26:14.440Z,32.34
2023-05-10T12:27:17.210Z,32.32
2023-05-10T12:28:20.312Z,32.22
2023-05-10T12:29:22.550Z,32.54
2023-05-10T12:30:27.206Z,32.90
2023-05-10T12:31:29.547Z,32.73
2023-05-10T12:33:50.735Z,32.17
2023-05-10T12:34:53.020Z,32.36
2023-05-10T12:35:55.738Z,31.78
2023-05-10T12:36:58.023Z,31.02
2023-05-10T12:38:00.350Z,31.98
2023-05-10T12:39:04.255Z,32.37
2023-05-10T12:40:09.994Z,33.48
2023-05-10T12:42:30.532Z,32.45
2023-05-10T12:43:33.994Z,32.53
2023-05-10T12:44:36.252Z,33.08
2023-05-10T12:45:38.492Z,31.98
2023-05-10T12:46:41.088Z,31.95
2023-05-10T12:47:44.174Z,33.02
2023-05-10T12:48:47.115Z,32.41
2023-05-10T12:49:49.649Z,31.70
2023-05-10T12:50:52.304Z,32.18
2023-05-10T12:51:54.505Z,32.00
2023-05-10T12:52:57.103Z,32.28
2023-05-10T12:53:59.361Z,33.56
2023-05-10T12:55:01.861Z,31.05
2023-05-10T12:56:04.504Z,31.30
2023-05-10T12:57:06.790Z,32.27
2023-05-10T12:58:09.072Z,32.23
2023-05-10T12:59:11.302Z,32.38
2023-05-10T13:00:15.623Z,31.66
2023-05-10T13:01:18.689Z,31.84
2023-05-10T13:02:21.051Z,32.01
2023-05-10T13:03:23.334Z,31.09
2023-05-10T13:04:26.063Z,31.77
2023-05-10T13:05:28.828Z,32.61
2023-05-10T13:06:31.543Z,32.24
2023-05-10T13:07:33.712Z,31.72
2023-05-10T13:08:35.901Z,33.34
2023-05-10T13:09:38.705Z,31.99
2023-05-10T13:10:41.451Z,32.04
2023-05-10T13:11:43.662Z,30.12
2023-05-10T13:12:46.012Z,30.03
2023-05-10T13:13:48.290Z,30.43
2023-05-10T13:14:51.103Z,31.98
2023-05-10T13:15:53.424Z,32.66
2023-05-10T13:16:55.851Z,32.82
2023-05-10T13:17:58.749Z,31.46
2023-05-10T13:19:01.217Z,31.91
2023-05-10T13:20:04.296Z,31.48
2023-05-10T13:21:07.156Z,32.17
2023-05-10T13:22:09.439Z,32.14
2023-05-10T13:23:11.666Z,30.53
2023-05-10T13:24:13.828Z,29.81
2023-05-10T13:25:15.837Z,30.32
2023-05-10T13:26:19.318Z,30.27
2023-05-10T13:27:22.010Z,30.90
2023-05-10T13:28:24.360Z,31.79
2023-05-10T13:29:26.557Z,31.02
2023-05-10T13:30:29.285Z,32.23
2023-05-10T13:31:31.832Z,31.57
2023-05-10T13:32:34.562Z,31.72
2023-05-10T13:33:37.035Z,31.25
2023-05-10T13:34:39.255Z,30.37
2023-05-10T13:35:42.150Z,30.53
2023-05-10T13:36:44.624Z,31.27
2023-05-10T13:37:48.794Z,29.43
2023-05-10T13:38:51.680Z,29.87
2023-05-10T13:39:54.706Z,31.01
2023-05-10T13:40:57.172Z,30.68
2023-05-10T13:41:59.437Z,31.23
2023-05-10T13:43:01.724Z,30.18
2023-05-10T13:44:04.450Z,30.47
2023-05-10T13:45:07.199Z,29.85
2023-05-10T13:46:09.856Z,29.95
2023-05-10T13:47:12.144Z,29.66
2023-05-10T13:48:14.370Z,29.92
2023-05-10T13:49:16.590Z,30.29
2023-05-10T13:50:19.756Z,29.96
2023-05-10T13:51:22.123Z,29.50
2023-05-10T13:52:24.971Z,28.93
2023-05-10T13:53:27.118Z,30.27
2023-05-10T13:54:29.783Z,30.01
2023-05-10T13:55:31.955Z,30.45
2023-05-10T13:56:34.204Z,29.98
2023-05-10T13:57:36.421Z,29.14
2023-05-10T13:58:38.762Z,29.66
2023-05-10T13:59:40.884Z,30.92
2023-05-10T14:00:43.644Z,31.06
2023-05-10T14:01:46.374Z,31.30
2023-05-10T14:02:48.909Z,31.02
2023-05-10T14:03:51.276Z,30.38
2023-05-10T14:04:53.643Z,30.87
2023-05-10T14:05:56.410Z,30.14
2023-05-10T14:06:59.256Z,30.28
2023-05-10T14:08:01.472Z,29.43
2023-05-10T14:09:03.942Z,29.48
2023-05-10T14:10:09.284Z,30.03
2023-05-10T14:11:12.907Z,30.12
2023-05-10T14:12:17.581Z,30.96
2023-05-10T14:13:22.914Z,30.29
2023-05-10T14:14:30.950Z,30.01
2023-05-10T14:15:37.859Z,29.85